sensor_id;sensor_type;location;lat;lon;timestamp;P1;durP1;ratioP1;P2;durP2;ratioP2
34741;SDS011;20968;42.696;23.360;2022-12-05T00:00:12;19.13;;;9.93;;
34741;SDS011;20968;42.696;23.360;2022-12-05T00:02:38;14.00;;;8.02;;
34741;SDS011;20968;42.696;23.360;2022-12-05T00:05:03;20.65;;;8.75;;
34741;SDS011;20968;42.696;23.360;2022-12-05T00:07:29;16.15;;;7.40;;
34741;SDS011;20968;42.696;23.360;2022-12-05T00:09:55;14.00;;;7.25;;
34741;SDS011;20968;42.696;23.360;2022-12-05T00:12:20;16.65;;;7.93;;
34741;SDS011;20968;42.696;23.360;2022-12-05T00:14:46;15.35;;;8.27;;
34741;SDS011;20968;42.696;23.360;2022-12-05T00:17:11;17.92;;;8.45;;
34741;SDS011;20968;42.696;23.360;2022-12-05T00:19:37;15.02;;;7.38;;
34741;SDS011;20968;42.696;23.360;2022-12-05T00:22:03;13.45;;;7.32;;
34741;SDS011;20968;42.696;23.360;2022-12-05T00:24:28;15.35;;;7.57;;
34741;SDS011;20968;42.696;23.360;2022-12-05T00:26:54;16.83;;;8.18;;
34741;SDS011;20968;42.696;23.360;2022-12-05T00:29:19;14.63;;;7.00;;
34741;SDS011;20968;42.696;23.360;2022-12-05T00:31:45;14.10;;;6.55;;
34741;SDS011;20968;42.696;23.360;2022-12-05T00:34:11;14.35;;;8.40;;
34741;SDS011;20968;42.696;23.360;2022-12-05T00:36:36;14.90;;;7.65;;
34741;SDS011;20968;42.696;23.360;2022-12-05T00:39:09;16.08;;;8.07;;
34741;SDS011;20968;42.696;23.360;2022-12-05T00:41:38;16.13;;;7.88;;
34741;SDS011;20968;42.696;23.360;2022-12-05T00:44:04;18.35;;;7.35;;
34741;SDS011;20968;42.696;23.360;2022-12-05T00:46:30;15.15;;;7.28;;
34741;SDS011;20968;42.696;23.360;2022-12-05T00:48:56;16.77;;;7.65;;
34741;SDS011;20968;42.696;23.360;2022-12-05T00:51:25;11.77;;;7.05;;
34741;SDS011;20968;42.696;23.360;2022-12-05T00:53:52;15.63;;;7.03;;
34741;SDS011;20968;42.696;23.360;2022-12-05T00:56:19;12.95;;;6.65;;
34741;SDS011;20968;42.696;23.360;2022-12-05T00:58:47;15.45;;;7.40;;
34741;SDS011;20968;42.696;23.360;2022-12-05T01:01:17;18.02;;;7.97;;
34741;SDS011;20968;42.696;23.360;2022-12-05T01:03:45;17.48;;;7.57;;
34741;SDS011;20968;42.696;23.360;2022-12-05T01:06:11;17.90;;;8.57;;
34741;SDS011;20968;42.696;23.360;2022-12-05T01:08:38;18.67;;;6.03;;
34741;SDS011;20968;42.696;23.360;2022-12-05T01:11:04;12.95;;;6.63;;
34741;SDS011;20968;42.696;23.360;2022-12-05T01:13:30;19.77;;;8.48;;
34741;SDS011;20968;42.696;23.360;2022-12-05T01:15:56;17.10;;;8.18;;
34741;SDS011;20968;42.696;23.360;2022-12-05T01:18:22;21.27;;;8.00;;
34741;SDS011;20968;42.696;23.360;2022-12-05T01:20:48;13.52;;;6.60;;
34741;SDS011;20968;42.696;23.360;2022-12-05T01:23:14;16.60;;;7.57;;
34741;SDS011;20968;42.696;23.360;2022-12-05T01:25:43;19.45;;;7.63;;
34741;SDS011;20968;42.696;23.360;2022-12-05T01:28:09;17.58;;;6.80;;
34741;SDS011;20968;42.696;23.360;2022-12-05T01:30:36;16.48;;;8.20;;
34741;SDS011;20968;42.696;23.360;2022-12-05T01:33:03;13.85;;;7.82;;
34741;SDS011;20968;42.696;23.360;2022-12-05T01:35:30;14.57;;;7.40;;
34741;SDS011;20968;42.696;23.360;2022-12-05T01:37:56;18.00;;;8.35;;
34741;SDS011;20968;42.696;23.360;2022-12-05T01:40:21;14.25;;;7.78;;
34741;SDS011;20968;42.696;23.360;2022-12-05T01:42:47;21.92;;;8.45;;
34741;SDS011;20968;42.696;23.360;2022-12-05T01:45:13;15.32;;;7.35;;
34741;SDS011;20968;42.696;23.360;2022-12-05T01:47:41;17.15;;;8.43;;
34741;SDS011;20968;42.696;23.360;2022-12-05T01:50:07;17.65;;;8.43;;
34741;SDS011;20968;42.696;23.360;2022-12-05T01:52:33;20.42;;;9.65;;
34741;SDS011;20968;42.696;23.360;2022-12-05T01:55:03;16.20;;;7.88;;
34741;SDS011;20968;42.696;23.360;2022-12-05T01:57:34;19.65;;;8.80;;
34741;SDS011;20968;42.696;23.360;2022-12-05T02:00:03;14.20;;;7.10;;
34741;SDS011;20968;42.696;23.360;2022-12-05T02:02:34;15.40;;;8.13;;
34741;SDS011;20968;42.696;23.360;2022-12-05T02:05:04;14.98;;;7.50;;
34741;SDS011;20968;42.696;23.360;2022-12-05T02:07:33;19.98;;;7.82;;
34741;SDS011;20968;42.696;23.360;2022-12-05T02:10:02;16.40;;;7.65;;
34741;SDS011;20968;42.696;23.360;2022-12-05T02:12:28;12.73;;;7.05;;
34741;SDS011;20968;42.696;23.360;2022-12-05T02:31:55;21.88;;;9.88;;
34741;SDS011;20968;42.696;23.360;2022-12-05T02:34:35;17.85;;;7.53;;
34741;SDS011;20968;42.696;23.360;2022-12-05T02:37:21;12.23;;;6.05;;
34741;SDS011;20968;42.696;23.360;2022-12-05T02:42:50;15.23;;;6.85;;
34741;SDS011;20968;42.696;23.360;2022-12-05T02:45:23;13.52;;;6.25;;
34741;SDS011;20968;42.696;23.360;2022-12-05T02:47:52;11.40;;;5.95;;
34741;SDS011;20968;42.696;23.360;2022-12-05T02:50:20;20.58;;;8.82;;
34741;SDS011;20968;42.696;23.360;2022-12-05T02:52:50;13.98;;;6.88;;
34741;SDS011;20968;42.696;23.360;2022-12-05T02:55:18;15.68;;;7.20;;
34741;SDS011;20968;42.696;23.360;2022-12-05T02:57:50;17.20;;;7.43;;
34741;SDS011;20968;42.696;23.360;2022-12-05T03:00:19;16.63;;;6.13;;
34741;SDS011;20968;42.696;23.360;2022-12-05T03:02:46;16.10;;;6.95;;
34741;SDS011;20968;42.696;23.360;2022-12-05T03:07:55;15.95;;;7.13;;
34741;SDS011;20968;42.696;23.360;2022-12-05T03:10:24;15.18;;;7.47;;
34741;SDS011;20968;42.696;23.360;2022-12-05T03:12:55;13.02;;;7.15;;
34741;SDS011;20968;42.696;23.360;2022-12-05T03:15:31;16.83;;;7.50;;
34741;SDS011;20968;42.696;23.360;2022-12-05T03:20:55;17.27;;;7.40;;
34741;SDS011;20968;42.696;23.360;2022-12-05T03:23:32;13.30;;;6.90;;
34741;SDS011;20968;42.696;23.360;2022-12-05T03:34:20;14.93;;;6.75;;
34741;SDS011;20968;42.696;23.360;2022-12-05T03:36:55;17.00;;;8.15;;
34741;SDS011;20968;42.696;23.360;2022-12-05T03:39:24;16.88;;;7.65;;
34741;SDS011;20968;42.696;23.360;2022-12-05T03:44:51;14.73;;;7.07;;
34741;SDS011;20968;42.696;23.360;2022-12-05T03:47:20;13.63;;;6.80;;
34741;SDS011;20968;42.696;23.360;2022-12-05T03:50:02;13.80;;;7.88;;
34741;SDS011;20968;42.696;23.360;2022-12-05T03:52:39;14.80;;;7.03;;
34741;SDS011;20968;42.696;23.360;2022-12-05T03:55:09;16.23;;;7.65;;
34741;SDS011;20968;42.696;23.360;2022-12-05T04:00:14;17.33;;;7.40;;
34741;SDS011;20968;42.696;23.360;2022-12-05T04:05:19;13.68;;;6.60;;
34741;SDS011;20968;42.696;23.360;2022-12-05T04:07:50;18.08;;;6.82;;
34741;SDS011;20968;42.696;23.360;2022-12-05T04:10:21;15.73;;;6.85;;
34741;SDS011;20968;42.696;23.360;2022-12-05T04:12:51;14.77;;;7.63;;
34741;SDS011;20968;42.696;23.360;2022-12-05T04:15:27;13.68;;;7.22;;
34741;SDS011;20968;42.696;23.360;2022-12-05T04:18:16;13.90;;;6.90;;
34741;SDS011;20968;42.696;23.360;2022-12-05T04:20:44;14.55;;;6.63;;
34741;SDS011;20968;42.696;23.360;2022-12-05T04:23:30;13.88;;;6.93;;
34741;SDS011;20968;42.696;23.360;2022-12-05T04:28:40;14.15;;;7.65;;
34741;SDS011;20968;42.696;23.360;2022-12-05T04:36:22;17.17;;;6.95;;
34741;SDS011;20968;42.696;23.360;2022-12-05T04:41:31;15.88;;;7.10;;
34741;SDS011;20968;42.696;23.360;2022-12-05T04:44:07;20.00;;;8.20;;
34741;SDS011;20968;42.696;23.360;2022-12-05T04:46:35;17.73;;;8.27;;
34741;SDS011;20968;42.696;23.360;2022-12-05T04:49:05;31.63;;;11.70;;
34741;SDS011;20968;42.696;23.360;2022-12-05T04:51:33;32.42;;;12.85;;
34741;SDS011;20968;42.696;23.360;2022-12-05T04:54:02;19.83;;;8.45;;
34741;SDS011;20968;42.696;23.360;2022-12-05T04:56:33;15.07;;;6.75;;
34741;SDS011;20968;42.696;23.360;2022-12-05T04:59:02;18.13;;;7.85;;
34741;SDS011;20968;42.696;23.360;2022-12-05T05:04:28;19.25;;;8.88;;
34741;SDS011;20968;42.696;23.360;2022-12-05T05:06:58;14.57;;;7.57;;
34741;SDS011;20968;42.696;23.360;2022-12-05T05:09:23;18.35;;;7.88;;
34741;SDS011;20968;42.696;23.360;2022-12-05T05:11:49;17.63;;;8.65;;
34741;SDS011;20968;42.696;23.360;2022-12-05T05:14:14;17.63;;;8.35;;
34741;SDS011;20968;42.696;23.360;2022-12-05T05:16:40;19.70;;;8.15;;
34741;SDS011;20968;42.696;23.360;2022-12-05T05:19:06;19.83;;;9.18;;
34741;SDS011;20968;42.696;23.360;2022-12-05T05:24:00;24.90;;;11.18;;
34741;SDS011;20968;42.696;23.360;2022-12-05T05:26:26;16.40;;;9.48;;
34741;SDS011;20968;42.696;23.360;2022-12-05T05:28:53;21.17;;;9.35;;
34741;SDS011;20968;42.696;23.360;2022-12-05T05:31:19;16.25;;;9.30;;
34741;SDS011;20968;42.696;23.360;2022-12-05T05:33:48;23.58;;;10.68;;
34741;SDS011;20968;42.696;23.360;2022-12-05T05:36:15;18.90;;;8.95;;
34741;SDS011;20968;42.696;23.360;2022-12-05T05:38:41;15.05;;;8.82;;
34741;SDS011;20968;42.696;23.360;2022-12-05T05:41:12;16.08;;;8.13;;
34741;SDS011;20968;42.696;23.360;2022-12-05T05:43:39;18.02;;;9.38;;
34741;SDS011;20968;42.696;23.360;2022-12-05T05:46:05;17.40;;;8.57;;
34741;SDS011;20968;42.696;23.360;2022-12-05T05:48:31;19.98;;;9.65;;
34741;SDS011;20968;42.696;23.360;2022-12-05T05:51:00;19.15;;;9.60;;
34741;SDS011;20968;42.696;23.360;2022-12-05T05:53:26;21.15;;;8.23;;
34741;SDS011;20968;42.696;23.360;2022-12-05T05:55:52;16.85;;;7.65;;
34741;SDS011;20968;42.696;23.360;2022-12-05T05:58:17;19.75;;;8.52;;
34741;SDS011;20968;42.696;23.360;2022-12-05T06:00:43;16.60;;;7.95;;
34741;SDS011;20968;42.696;23.360;2022-12-05T06:03:08;19.33;;;10.13;;
34741;SDS011;20968;42.696;23.360;2022-12-05T06:05:33;18.30;;;8.95;;
34741;SDS011;20968;42.696;23.360;2022-12-05T06:07:59;17.13;;;8.68;;
34741;SDS011;20968;42.696;23.360;2022-12-05T06:10:25;18.83;;;9.00;;
34741;SDS011;20968;42.696;23.360;2022-12-05T06:12:50;17.23;;;8.40;;
34741;SDS011;20968;42.696;23.360;2022-12-05T06:15:16;22.88;;;9.43;;
34741;SDS011;20968;42.696;23.360;2022-12-05T06:17:41;20.45;;;9.57;;
34741;SDS011;20968;42.696;23.360;2022-12-05T06:20:07;20.00;;;10.05;;
34741;SDS011;20968;42.696;23.360;2022-12-05T06:22:33;22.38;;;9.82;;
34741;SDS011;20968;42.696;23.360;2022-12-05T06:25:01;20.85;;;8.57;;
34741;SDS011;20968;42.696;23.360;2022-12-05T06:27:28;22.00;;;9.43;;
34741;SDS011;20968;42.696;23.360;2022-12-05T06:29:55;18.73;;;9.13;;
34741;SDS011;20968;42.696;23.360;2022-12-05T06:32:23;21.80;;;10.50;;
34741;SDS011;20968;42.696;23.360;2022-12-05T06:34:49;27.67;;;14.32;;
34741;SDS011;20968;42.696;23.360;2022-12-05T06:37:14;37.15;;;14.20;;
34741;SDS011;20968;42.696;23.360;2022-12-05T06:39:39;22.92;;;11.35;;
34741;SDS011;20968;42.696;23.360;2022-12-05T06:42:05;23.55;;;10.80;;
34741;SDS011;20968;42.696;23.360;2022-12-05T06:44:30;22.00;;;10.55;;
34741;SDS011;20968;42.696;23.360;2022-12-05T06:46:56;20.23;;;9.93;;
34741;SDS011;20968;42.696;23.360;2022-12-05T06:49:22;18.02;;;8.30;;
34741;SDS011;20968;42.696;23.360;2022-12-05T06:51:51;16.67;;;8.75;;
34741;SDS011;20968;42.696;23.360;2022-12-05T06:54:17;18.45;;;8.48;;
34741;SDS011;20968;42.696;23.360;2022-12-05T06:56:42;24.33;;;9.75;;
34741;SDS011;20968;42.696;23.360;2022-12-05T06:59:08;23.55;;;9.93;;
34741;SDS011;20968;42.696;23.360;2022-12-05T07:01:33;19.17;;;9.52;;
34741;SDS011;20968;42.696;23.360;2022-12-05T07:04:10;14.32;;;7.85;;
34741;SDS011;20968;42.696;23.360;2022-12-05T07:06:36;17.33;;;8.75;;
34741;SDS011;20968;42.696;23.360;2022-12-05T07:09:02;46.25;;;16.08;;
34741;SDS011;20968;42.696;23.360;2022-12-05T07:11:28;31.20;;;11.93;;
34741;SDS011;20968;42.696;23.360;2022-12-05T07:13:54;17.88;;;9.05;;
34741;SDS011;20968;42.696;23.360;2022-12-05T07:16:19;17.67;;;8.70;;
34741;SDS011;20968;42.696;23.360;2022-12-05T07:18:45;15.27;;;8.55;;
34741;SDS011;20968;42.696;23.360;2022-12-05T07:21:11;21.38;;;9.38;;
34741;SDS011;20968;42.696;23.360;2022-12-05T07:23:39;21.40;;;8.68;;
34741;SDS011;20968;42.696;23.360;2022-12-05T07:26:06;23.70;;;9.45;;
34741;SDS011;20968;42.696;23.360;2022-12-05T07:28:33;18.58;;;7.95;;
34741;SDS011;20968;42.696;23.360;2022-12-05T07:31:00;20.17;;;9.40;;
34741;SDS011;20968;42.696;23.360;2022-12-05T07:33:27;16.38;;;7.90;;
34741;SDS011;20968;42.696;23.360;2022-12-05T07:35:57;17.35;;;9.20;;
34741;SDS011;20968;42.696;23.360;2022-12-05T07:38:24;17.13;;;7.55;;
34741;SDS011;20968;42.696;23.360;2022-12-05T07:40:50;19.33;;;9.20;;
34741;SDS011;20968;42.696;23.360;2022-12-05T07:43:15;18.52;;;8.32;;
34741;SDS011;20968;42.696;23.360;2022-12-05T07:45:40;18.13;;;9.13;;
34741;SDS011;20968;42.696;23.360;2022-12-05T07:48:06;17.95;;;8.82;;
34741;SDS011;20968;42.696;23.360;2022-12-05T07:50:31;18.77;;;9.23;;
34741;SDS011;20968;42.696;23.360;2022-12-05T07:52:57;18.10;;;9.50;;
34741;SDS011;20968;42.696;23.360;2022-12-05T07:55:22;21.40;;;9.65;;
34741;SDS011;20968;42.696;23.360;2022-12-05T07:57:47;20.20;;;9.55;;
34741;SDS011;20968;42.696;23.360;2022-12-05T08:00:13;19.05;;;9.48;;
34741;SDS011;20968;42.696;23.360;2022-12-05T08:02:39;12.88;;;8.13;;
34741;SDS011;20968;42.696;23.360;2022-12-05T08:05:04;20.92;;;9.77;;
34741;SDS011;20968;42.696;23.360;2022-12-05T08:07:30;19.77;;;10.13;;
34741;SDS011;20968;42.696;23.360;2022-12-05T08:09:56;16.60;;;9.35;;
34741;SDS011;20968;42.696;23.360;2022-12-05T08:12:22;25.08;;;9.10;;
34741;SDS011;20968;42.696;23.360;2022-12-05T08:14:47;22.02;;;9.93;;
34741;SDS011;20968;42.696;23.360;2022-12-05T08:17:13;20.35;;;10.38;;
34741;SDS011;20968;42.696;23.360;2022-12-05T08:19:38;21.13;;;9.40;;
34741;SDS011;20968;42.696;23.360;2022-12-05T08:22:03;16.75;;;8.18;;
34741;SDS011;20968;42.696;23.360;2022-12-05T08:24:29;19.42;;;8.43;;
34741;SDS011;20968;42.696;23.360;2022-12-05T08:26:54;19.27;;;8.38;;
34741;SDS011;20968;42.696;23.360;2022-12-05T08:29:20;17.00;;;8.15;;
34741;SDS011;20968;42.696;23.360;2022-12-05T08:31:47;17.08;;;8.88;;
34741;SDS011;20968;42.696;23.360;2022-12-05T08:34:15;15.10;;;7.35;;
34741;SDS011;20968;42.696;23.360;2022-12-05T08:36:42;17.02;;;7.32;;
34741;SDS011;20968;42.696;23.360;2022-12-05T08:39:10;12.90;;;7.63;;
34741;SDS011;20968;42.696;23.360;2022-12-05T08:41:40;12.90;;;7.00;;
34741;SDS011;20968;42.696;23.360;2022-12-05T08:44:06;9.68;;;5.82;;
34741;SDS011;20968;42.696;23.360;2022-12-05T08:46:35;14.27;;;7.03;;
34741;SDS011;20968;42.696;23.360;2022-12-05T08:49:02;12.57;;;6.32;;
34741;SDS011;20968;42.696;23.360;2022-12-05T08:51:28;11.13;;;5.82;;
34741;SDS011;20968;42.696;23.360;2022-12-05T08:53:54;7.68;;;4.90;;
34741;SDS011;20968;42.696;23.360;2022-12-05T08:56:20;10.30;;;6.47;;
34741;SDS011;20968;42.696;23.360;2022-12-05T08:58:46;8.40;;;5.63;;
34741;SDS011;20968;42.696;23.360;2022-12-05T09:01:13;10.82;;;6.35;;
34741;SDS011;20968;42.696;23.360;2022-12-05T09:03:43;10.20;;;6.15;;
34741;SDS011;20968;42.696;23.360;2022-12-05T09:08:59;12.43;;;6.40;;
34741;SDS011;20968;42.696;23.360;2022-12-05T09:11:27;12.85;;;6.20;;
34741;SDS011;20968;42.696;23.360;2022-12-05T09:13:55;13.82;;;7.00;;
34741;SDS011;20968;42.696;23.360;2022-12-05T09:16:28;8.48;;;5.28;;
34741;SDS011;20968;42.696;23.360;2022-12-05T09:18:56;11.77;;;6.30;;
34741;SDS011;20968;42.696;23.360;2022-12-05T09:21:23;13.38;;;5.93;;
34741;SDS011;20968;42.696;23.360;2022-12-05T09:23:51;7.90;;;4.63;;
34741;SDS011;20968;42.696;23.360;2022-12-05T09:26:18;15.13;;;8.23;;
34741;SDS011;20968;42.696;23.360;2022-12-05T09:28:46;13.00;;;6.15;;
34741;SDS011;20968;42.696;23.360;2022-12-05T09:31:16;10.07;;;5.25;;
34741;SDS011;20968;42.696;23.360;2022-12-05T09:33:44;8.23;;;4.88;;
34741;SDS011;20968;42.696;23.360;2022-12-05T09:36:12;7.80;;;4.25;;
34741;SDS011;20968;42.696;23.360;2022-12-05T09:38:41;8.70;;;4.80;;
34741;SDS011;20968;42.696;23.360;2022-12-05T09:43:36;6.80;;;3.70;;
34741;SDS011;20968;42.696;23.360;2022-12-05T09:46:19;6.18;;;4.13;;
34741;SDS011;20968;42.696;23.360;2022-12-05T09:49:06;8.38;;;3.60;;
34741;SDS011;20968;42.696;23.360;2022-12-05T09:51:35;6.60;;;4.40;;
34741;SDS011;20968;42.696;23.360;2022-12-05T09:54:08;10.52;;;5.68;;
34741;SDS011;20968;42.696;23.360;2022-12-05T09:56:35;13.68;;;6.13;;
34741;SDS011;20968;42.696;23.360;2022-12-05T09:59:02;13.57;;;6.53;;
34741;SDS011;20968;42.696;23.360;2022-12-05T10:15:03;11.80;;;5.80;;
34741;SDS011;20968;42.696;23.360;2022-12-05T10:17:46;8.77;;;4.63;;
34741;SDS011;20968;42.696;23.360;2022-12-05T10:20:21;14.23;;;5.68;;
34741;SDS011;20968;42.696;23.360;2022-12-05T10:22:53;11.63;;;5.18;;
34741;SDS011;20968;42.696;23.360;2022-12-05T10:25:25;6.97;;;4.72;;
34741;SDS011;20968;42.696;23.360;2022-12-05T10:27:52;17.60;;;5.30;;
34741;SDS011;20968;42.696;23.360;2022-12-05T10:30:22;7.93;;;4.53;;
34741;SDS011;20968;42.696;23.360;2022-12-05T10:32:56;45.92;;;23.73;;
34741;SDS011;20968;42.696;23.360;2022-12-05T10:35:24;47.92;;;25.55;;
34741;SDS011;20968;42.696;23.360;2022-12-05T10:37:54;35.15;;;17.42;;
34741;SDS011;20968;42.696;23.360;2022-12-05T10:40:22;11.50;;;6.50;;
34741;SDS011;20968;42.696;23.360;2022-12-05T10:42:51;44.33;;;22.88;;
34741;SDS011;20968;42.696;23.360;2022-12-05T10:45:18;49.58;;;22.73;;
34741;SDS011;20968;42.696;23.360;2022-12-05T10:47:46;21.48;;;11.63;;
34741;SDS011;20968;42.696;23.360;2022-12-05T10:50:18;79.57;;;32.90;;
34741;SDS011;20968;42.696;23.360;2022-12-05T10:52:47;26.38;;;14.85;;
34741;SDS011;20968;42.696;23.360;2022-12-05T10:55:15;10.40;;;6.88;;
34741;SDS011;20968;42.696;23.360;2022-12-05T10:57:43;12.60;;;6.82;;
34741;SDS011;20968;42.696;23.360;2022-12-05T11:00:15;15.77;;;7.68;;
34741;SDS011;20968;42.696;23.360;2022-12-05T11:02:43;19.08;;;9.82;;
34741;SDS011;20968;42.696;23.360;2022-12-05T11:05:12;37.33;;;15.82;;
34741;SDS011;20968;42.696;23.360;2022-12-05T11:07:45;16.52;;;6.93;;
34741;SDS011;20968;42.696;23.360;2022-12-05T11:10:21;15.73;;;6.10;;
34741;SDS011;20968;42.696;23.360;2022-12-05T11:13:00;15.40;;;7.03;;
34741;SDS011;20968;42.696;23.360;2022-12-05T11:15:27;16.45;;;7.05;;
34741;SDS011;20968;42.696;23.360;2022-12-05T11:17:55;27.90;;;12.82;;
34741;SDS011;20968;42.696;23.360;2022-12-05T11:22:52;19.73;;;8.90;;
34741;SDS011;20968;42.696;23.360;2022-12-05T11:25:34;16.10;;;8.15;;
34741;SDS011;20968;42.696;23.360;2022-12-05T11:33:28;12.73;;;8.25;;
34741;SDS011;20968;42.696;23.360;2022-12-05T11:35:56;13.30;;;6.47;;
34741;SDS011;20968;42.696;23.360;2022-12-05T11:38:27;14.15;;;5.88;;
34741;SDS011;20968;42.696;23.360;2022-12-05T11:40:59;13.68;;;7.35;;
34741;SDS011;20968;42.696;23.360;2022-12-05T11:52:10;14.32;;;9.00;;
34741;SDS011;20968;42.696;23.360;2022-12-05T11:55:20;12.30;;;6.20;;
34741;SDS011;20968;42.696;23.360;2022-12-05T11:57:56;13.27;;;7.63;;
34741;SDS011;20968;42.696;23.360;2022-12-05T12:00:54;22.70;;;10.43;;
34741;SDS011;20968;42.696;23.360;2022-12-05T12:25:10;17.15;;;9.60;;
34741;SDS011;20968;42.696;23.360;2022-12-05T12:27:54;16.33;;;8.63;;
34741;SDS011;20968;42.696;23.360;2022-12-05T12:33:13;20.40;;;8.75;;
34741;SDS011;20968;42.696;23.360;2022-12-05T12:47:10;78.47;;;32.25;;
34741;SDS011;20968;42.696;23.360;2022-12-05T12:49:59;38.47;;;18.80;;
34741;SDS011;20968;42.696;23.360;2022-12-05T12:52:33;25.60;;;12.65;;
34741;SDS011;20968;42.696;23.360;2022-12-05T13:01:01;22.55;;;11.63;;
34741;SDS011;20968;42.696;23.360;2022-12-05T13:03:33;19.80;;;11.07;;
34741;SDS011;20968;42.696;23.360;2022-12-05T13:06:15;27.00;;;11.85;;
34741;SDS011;20968;42.696;23.360;2022-12-05T13:08:54;24.95;;;12.45;;
34741;SDS011;20968;42.696;23.360;2022-12-05T13:11:24;28.70;;;14.30;;
34741;SDS011;20968;42.696;23.360;2022-12-05T13:13:56;24.38;;;12.63;;
34741;SDS011;20968;42.696;23.360;2022-12-05T13:16:29;28.02;;;12.68;;
34741;SDS011;20968;42.696;23.360;2022-12-05T13:21:24;20.10;;;10.40;;
34741;SDS011;20968;42.696;23.360;2022-12-05T13:23:52;20.45;;;10.68;;
34741;SDS011;20968;42.696;23.360;2022-12-05T13:26:27;23.35;;;11.27;;
34741;SDS011;20968;42.696;23.360;2022-12-05T13:28:54;24.00;;;11.52;;
34741;SDS011;20968;42.696;23.360;2022-12-05T13:33:59;30.83;;;12.43;;
34741;SDS011;20968;42.696;23.360;2022-12-05T13:36:25;31.85;;;17.38;;
34741;SDS011;20968;42.696;23.360;2022-12-05T13:41:56;37.22;;;17.70;;
34741;SDS011;20968;42.696;23.360;2022-12-05T13:44:41;33.33;;;18.60;;
34741;SDS011;20968;42.696;23.360;2022-12-05T13:47:54;41.33;;;19.70;;
34741;SDS011;20968;42.696;23.360;2022-12-05T13:50:14;40.97;;;19.02;;
34741;SDS011;20968;42.696;23.360;2022-12-05T13:52:53;29.25;;;14.57;;
34741;SDS011;20968;42.696;23.360;2022-12-05T13:57:59;31.77;;;15.02;;
34741;SDS011;20968;42.696;23.360;2022-12-05T14:00:33;29.38;;;14.73;;
34741;SDS011;20968;42.696;23.360;2022-12-05T14:03:03;35.60;;;13.63;;
34741;SDS011;20968;42.696;23.360;2022-12-05T14:05:34;27.75;;;14.05;;
34741;SDS011;20968;42.696;23.360;2022-12-05T14:08:01;27.80;;;15.23;;
34741;SDS011;20968;42.696;23.360;2022-12-05T14:11:07;34.97;;;15.13;;
34741;SDS011;20968;42.696;23.360;2022-12-05T14:13:38;27.30;;;13.43;;
34741;SDS011;20968;42.696;23.360;2022-12-05T14:18:56;22.55;;;12.13;;
34741;SDS011;20968;42.696;23.360;2022-12-05T14:35:21;41.15;;;19.65;;
34741;SDS011;20968;42.696;23.360;2022-12-05T14:38:05;33.08;;;14.52;;
34741;SDS011;20968;42.696;23.360;2022-12-05T14:40:32;31.98;;;15.10;;
34741;SDS011;20968;42.696;23.360;2022-12-05T14:46:06;35.33;;;16.88;;
34741;SDS011;20968;42.696;23.360;2022-12-05T14:48:32;34.03;;;17.48;;
34741;SDS011;20968;42.696;23.360;2022-12-05T14:51:00;36.13;;;15.80;;
34741;SDS011;20968;42.696;23.360;2022-12-05T14:53:46;26.98;;;13.75;;
34741;SDS011;20968;42.696;23.360;2022-12-05T14:56:25;28.95;;;14.65;;
34741;SDS011;20968;42.696;23.360;2022-12-05T14:58:58;31.48;;;15.15;;
34741;SDS011;20968;42.696;23.360;2022-12-05T15:01:50;39.25;;;16.92;;
34741;SDS011;20968;42.696;23.360;2022-12-05T15:12:22;26.83;;;13.20;;
34741;SDS011;20968;42.696;23.360;2022-12-05T15:18:13;27.92;;;13.55;;
34741;SDS011;20968;42.696;23.360;2022-12-05T15:23:36;39.45;;;15.52;;
34741;SDS011;20968;42.696;23.360;2022-12-05T15:26:04;34.03;;;13.50;;
34741;SDS011;20968;42.696;23.360;2022-12-05T15:28:55;28.98;;;13.25;;
34741;SDS011;20968;42.696;23.360;2022-12-05T15:32:00;33.10;;;14.40;;
34741;SDS011;20968;42.696;23.360;2022-12-05T15:39:57;27.15;;;13.07;;
34741;SDS011;20968;42.696;23.360;2022-12-05T15:47:37;34.40;;;16.17;;
34741;SDS011;20968;42.696;23.360;2022-12-05T15:50:04;30.00;;;14.93;;
34741;SDS011;20968;42.696;23.360;2022-12-05T15:52:35;30.00;;;15.20;;
34741;SDS011;20968;42.696;23.360;2022-12-05T15:55:58;28.42;;;14.98;;
34741;SDS011;20968;42.696;23.360;2022-12-05T16:00:51;36.20;;;17.13;;
34741;SDS011;20968;42.696;23.360;2022-12-05T16:03:27;30.52;;;15.38;;
34741;SDS011;20968;42.696;23.360;2022-12-05T16:06:00;32.85;;;14.68;;
34741;SDS011;20968;42.696;23.360;2022-12-05T16:08:30;32.53;;;14.90;;
34741;SDS011;20968;42.696;23.360;2022-12-05T16:11:10;24.20;;;12.95;;
34741;SDS011;20968;42.696;23.360;2022-12-05T16:13:47;28.38;;;15.45;;
34741;SDS011;20968;42.696;23.360;2022-12-05T16:16:16;26.98;;;14.10;;
34741;SDS011;20968;42.696;23.360;2022-12-05T16:18:49;27.00;;;13.85;;
34741;SDS011;20968;42.696;23.360;2022-12-05T16:21:33;20.13;;;11.35;;
34741;SDS011;20968;42.696;23.360;2022-12-05T16:24:02;24.10;;;11.50;;
34741;SDS011;20968;42.696;23.360;2022-12-05T16:29:29;31.67;;;13.68;;
34741;SDS011;20968;42.696;23.360;2022-12-05T16:31:57;24.77;;;13.45;;
34741;SDS011;20968;42.696;23.360;2022-12-05T16:34:24;28.05;;;14.75;;
34741;SDS011;20968;42.696;23.360;2022-12-05T16:36:51;29.23;;;15.48;;
34741;SDS011;20968;42.696;23.360;2022-12-05T16:39:19;28.27;;;12.93;;
34741;SDS011;20968;42.696;23.360;2022-12-05T16:41:45;32.08;;;16.17;;
34741;SDS011;20968;42.696;23.360;2022-12-05T16:46:55;24.77;;;13.85;;
34741;SDS011;20968;42.696;23.360;2022-12-05T16:51:58;25.88;;;14.40;;
34741;SDS011;20968;42.696;23.360;2022-12-05T16:54:33;33.78;;;16.98;;
34741;SDS011;20968;42.696;23.360;2022-12-05T16:56:59;27.45;;;14.45;;
34741;SDS011;20968;42.696;23.360;2022-12-05T16:59:29;32.50;;;16.15;;
34741;SDS011;20968;42.696;23.360;2022-12-05T17:01:55;44.03;;;20.40;;
34741;SDS011;20968;42.696;23.360;2022-12-05T17:04:21;35.15;;;16.23;;
34741;SDS011;20968;42.696;23.360;2022-12-05T17:06:46;32.17;;;15.23;;
34741;SDS011;20968;42.696;23.360;2022-12-05T17:09:12;61.42;;;22.75;;
34741;SDS011;20968;42.696;23.360;2022-12-05T17:11:38;26.63;;;13.50;;
34741;SDS011;20968;42.696;23.360;2022-12-05T17:14:08;28.50;;;14.65;;
34741;SDS011;20968;42.696;23.360;2022-12-05T17:16:39;28.38;;;14.98;;
34741;SDS011;20968;42.696;23.360;2022-12-05T17:19:07;28.95;;;14.32;;
34741;SDS011;20968;42.696;23.360;2022-12-05T17:21:34;32.65;;;15.07;;
34741;SDS011;20968;42.696;23.360;2022-12-05T17:23:59;27.90;;;13.98;;
34741;SDS011;20968;42.696;23.360;2022-12-05T17:26:25;32.25;;;14.18;;
34741;SDS011;20968;42.696;23.360;2022-12-05T17:28:51;32.20;;;15.57;;
34741;SDS011;20968;42.696;23.360;2022-12-05T17:31:17;36.97;;;17.48;;
34741;SDS011;20968;42.696;23.360;2022-12-05T17:33:45;33.13;;;17.88;;
34741;SDS011;20968;42.696;23.360;2022-12-05T17:36:12;33.13;;;16.25;;
34741;SDS011;20968;42.696;23.360;2022-12-05T17:38:38;30.52;;;16.33;;
34741;SDS011;20968;42.696;23.360;2022-12-05T17:41:04;37.33;;;17.90;;
34741;SDS011;20968;42.696;23.360;2022-12-05T17:43:30;33.20;;;16.73;;
34741;SDS011;20968;42.696;23.360;2022-12-05T17:45:58;36.10;;;18.17;;
34741;SDS011;20968;42.696;23.360;2022-12-05T17:48:24;33.13;;;17.83;;
34741;SDS011;20968;42.696;23.360;2022-12-05T17:50:51;34.72;;;19.08;;
34741;SDS011;20968;42.696;23.360;2022-12-05T17:53:18;65.22;;;31.02;;